KFTW/FTW METAR and TAF weather

Enter ICAO airport designator
Station Type Date Time Source
KFTW METAR 2019/06/19 00:53 UTC NOAA

KFTW 190053Z 13009KT 10SM R16/5500VP6000FT CLR 31/20 A2979 RMK AO2 SLP079 T03110200


Station Type Date Time Source
KFTW Decoded METAR 2019/06/19 00:53 UTC NOAA

FORT WORTH MEACHAM INTERNATIONAL ., TX, United States (KFTW) 32-50N 097-22W 214M
Jun 18, 2019 - 08:53 PM EDT / 2019.06.19 0053 UTC
Wind: from the SE (130 degrees) at 10 MPH (9 KT):0
Visibility: 10 mile(s):0
Sky conditions: clear
Temperature: 88.0 F (31.1 C)
Dew Point: 68.0 F (20.0 C)
Relative Humidity: 51%
Pressure (altimeter): 29.79 in. Hg (1008 hPa)
ob: KFTW 190053Z 13009KT 10SM R16/5500VP6000FT CLR 31/20 A2979 RMK AO2 SLP079 T03110200
cycle: 1

Station Type Date Time Source
KFTW TAF 2019/06/18 21:52 UTC NOAA

TAF
AMD KFTW 182050Z 1821/1918 18008KT P6SM FEW050 SCT250
FM190400 19010KT P6SM VCTS BKN050CB BKN250
FM190900 18012KT P6SM SCT040 BKN250
FM191500 22014G22KT P6SM SCT120 BKN250

Example: see airport list